createdAt,value
2018-01-11T00:00:06.528Z,78.45
2018-01-11T00:01:06.533Z,78.45
2018-01-11T00:02:06.573Z,77.80
2018-01-11T00:03:06.534Z,78.17
2018-01-11T00:04:06.539Z,78.64
2018-01-11T00:05:06.549Z,79.02
2018-01-11T00:06:06.553Z,78.55
2018-01-11T00:07:06.552Z,78.55
2018-01-11T00:08:06.561Z,78.74
2018-01-11T00:09:06.561Z,78.74
2018-01-11T00:10:06.564Z,78.83
2018-01-11T00:11:06.616Z,78.83
2018-01-11T00:12:06.580Z,78.92
2018-01-11T00:13:06.579Z,79.30
2018-01-11T00:14:06.583Z,79.40
2018-01-11T00:15:06.594Z,79.78
2018-01-11T00:16:06.596Z,79.78
2018-01-11T00:17:06.602Z,79.78
2018-01-11T00:18:06.602Z,79.78
2018-01-11T00:19:06.606Z,80.34
2018-01-11T00:20:06.609Z,80.25
2018-01-11T00:21:06.619Z,80.72
2018-01-11T00:22:06.624Z,80.63
2018-01-11T00:23:06.629Z,80.91
2018-01-11T00:24:06.635Z,80.91
2018-01-11T00:25:06.634Z,80.53
2018-01-11T00:26:06.641Z,80.91
2018-01-11T00:27:06.647Z,80.91
2018-01-11T00:28:06.652Z,80.53
2018-01-11T00:29:06.651Z,80.53
2018-01-11T00:30:06.662Z,80.91
2018-01-11T00:31:06.664Z,80.25
2018-01-11T00:32:06.668Z,80.44
2018-01-11T00:33:06.674Z,80.63
2018-01-11T00:34:06.681Z,80.72
2018-01-11T00:35:06.685Z,81.57
2018-01-11T00:36:06.682Z,81.29
2018-01-11T00:37:06.687Z,81.20
2018-01-11T00:38:06.697Z,81.10
2018-01-11T00:39:06.704Z,81.01
2018-01-11T00:40:06.706Z,80.63
2018-01-11T00:41:06.710Z,80.25
2018-01-11T00:42:06.711Z,80.53
2018-01-11T00:43:06.721Z,81.10
2018-01-11T00:44:06.720Z,81.20
2018-01-11T00:45:06.722Z,81.01
2018-01-11T00:46:06.729Z,80.91
2018-01-11T00:47:06.738Z,80.72
2018-01-11T00:48:06.741Z,80.91
2018-01-11T00:49:06.741Z,80.91
2018-01-11T00:50:06.754Z,81.38
2018-01-11T00:51:06.759Z,81.57
2018-01-11T00:52:06.755Z,81.20
2018-01-11T00:53:06.765Z,81.48
2018-01-11T00:54:06.766Z,81.95
2018-01-11T00:55:06.775Z,81.85
2018-01-11T00:56:06.779Z,81.52
2018-01-11T00:57:06.780Z,81.48
2018-01-11T00:58:06.789Z,81.20
2018-01-11T00:59:06.787Z,81.38
2018-01-11T01:00:06.798Z,81.85
2018-01-11T01:01:06.797Z,81.90
2018-01-11T01:02:06.808Z,82.04
2018-01-11T01:03:06.807Z,82.23
2018-01-11T01:04:06.816Z,81.61
2018-01-11T01:05:06.814Z,81.67
2018-01-11T01:06:06.825Z,81.67
2018-01-11T01:07:06.830Z,81.95
2018-01-11T01:08:06.834Z,81.85
2018-01-11T01:09:06.842Z,82.14
2018-01-11T01:10:06.840Z,81.95
2018-01-11T01:11:06.844Z,82.37
2018-01-11T01:12:06.847Z,81.95
2018-01-11T01:13:06.853Z,82.51
2018-01-11T01:14:06.862Z,81.85
2018-01-11T01:15:06.862Z,81.76
2018-01-11T01:16:06.873Z,82.14
2018-01-11T01:17:06.877Z,81.67
2018-01-11T01:18:06.875Z,81.76
2018-01-11T01:19:06.881Z,81.95
2018-01-11T01:20:06.889Z,81.80
2018-01-11T01:21:06.890Z,81.95
2018-01-11T01:22:06.894Z,82.04
2018-01-11T01:23:06.904Z,82.04
2018-01-11T01:24:06.908Z,82.04
2018-01-11T01:25:06.913Z,82.14
2018-01-11T01:26:06.919Z,82.04
2018-01-11T01:27:06.918Z,81.95
2018-01-11T01:28:06.928Z,81.76
2018-01-11T01:29:06.931Z,81.57
2018-01-11T01:30:06.937Z,81.38
2018-01-11T01:31:06.937Z,81.67
2018-01-11T01:32:06.942Z,81.95
2018-01-11T01:33:06.944Z,82.14
2018-01-11T01:34:06.951Z,82.61
2018-01-11T01:35:06.955Z,81.76
2018-01-11T01:36:06.960Z,81.29
2018-01-11T01:37:06.963Z,81.10
2018-01-11T01:38:06.975Z,81.48
2018-01-11T01:39:06.979Z,80.82
2018-01-11T01:40:06.976Z,81.38
2018-01-11T01:41:06.984Z,80.91
2018-01-11T01:42:06.991Z,80.25
2018-01-11T01:43:06.995Z,80.91
2018-01-11T01:44:06.995Z,80.72
2018-01-11T01:45:07.006Z,80.63
2018-01-11T01:46:07.005Z,80.72
2018-01-11T01:47:07.012Z,80.25
2018-01-11T01:48:07.021Z,80.44
2018-01-11T01:49:07.018Z,80.82
2018-01-11T01:50:07.030Z,80.15
2018-01-11T01:51:07.035Z,79.87
2018-01-11T01:52:07.032Z,80.06
2018-01-11T01:53:07.037Z,79.78
2018-01-11T01:54:07.041Z,79.87
2018-01-11T01:55:07.053Z,79.87
2018-01-11T01:56:07.057Z,80.15
2018-01-11T01:57:07.094Z,79.87
2018-01-11T01:58:07.065Z,80.15
2018-01-11T01:59:07.117Z,80.34
2018-01-11T02:00:07.075Z,80.06
2018-01-11T02:01:07.079Z,80.34
2018-01-11T02:02:07.078Z,80.25
2018-01-11T02:03:07.093Z,80.72
2018-01-11T02:04:07.086Z,80.25
2018-01-11T02:05:07.096Z,80.63
2018-01-11T02:06:07.100Z,80.91
2018-01-11T02:07:07.100Z,80.72
2018-01-11T02:08:07.110Z,80.15
2018-01-11T02:09:07.114Z,80.72
2018-01-11T02:10:07.113Z,80.72
2018-01-11T02:11:07.129Z,81.38
2018-01-11T02:12:07.126Z,80.91
2018-01-11T02:13:07.132Z,80.91
2018-01-11T02:14:07.136Z,80.82
2018-01-11T02:15:07.142Z,81.38
2018-01-11T02:16:07.145Z,81.38
2018-01-11T02:17:07.149Z,81.48
2018-01-11T02:18:07.153Z,81.01
2018-01-11T02:19:07.157Z,81.38
2018-01-11T02:20:07.160Z,80.72
2018-01-11T02:21:07.166Z,80.72
2018-01-11T02:22:07.171Z,80.63
2018-01-11T02:23:07.176Z,80.63
2018-01-11T02:24:07.178Z,80.72
2018-01-11T02:25:07.183Z,80.72
2018-01-11T02:26:07.188Z,80.44
2018-01-11T02:27:07.192Z,80.72
2018-01-11T02:28:07.195Z,80.72
2018-01-11T02:29:07.199Z,80.53
2018-01-11T02:30:07.205Z,80.63
2018-01-11T02:31:07.212Z,81.38
2018-01-11T02:32:07.206Z,81.38
2018-01-11T02:33:07.213Z,81.29
2018-01-11T02:34:07.220Z,81.76
2018-01-11T02:35:07.225Z,82.14
2018-01-11T02:36:07.229Z,82.32
2018-01-11T02:37:07.230Z,82.51
2018-01-11T02:38:07.238Z,82.42
2018-01-11T02:39:07.242Z,82.51
2018-01-11T02:40:07.247Z,82.99
2018-01-11T02:41:07.253Z,83.17
2018-01-11T02:42:07.256Z,83.27
2018-01-11T02:43:07.254Z,83.36
2018-01-11T02:44:07.260Z,82.80
2018-01-11T02:45:07.260Z,82.80
2018-01-11T02:46:07.272Z,82.89
2018-01-11T02:47:07.271Z,82.89
2018-01-11T02:48:07.279Z,82.80
2018-01-11T02:49:07.283Z,82.14
2018-01-11T02:50:07.289Z,82.61
2018-01-11T02:51:07.293Z,82.61
2018-01-11T02:52:07.297Z,82.42
2018-01-11T02:53:07.302Z,82.42
2018-01-11T02:54:07.298Z,83.27
2018-01-11T02:55:07.318Z,83.46
2018-01-11T02:56:07.306Z,84.22
2018-01-11T02:57:07.376Z,84.31
2018-01-11T02:58:07.322Z,84.78
2018-01-11T02:59:07.323Z,84.22
2018-01-11T03:00:07.323Z,84.41
2018-01-11T03:01:07.332Z,84.50
2018-01-11T03:02:07.330Z,84.41
2018-01-11T03:03:07.336Z,84.03
2018-01-11T03:04:07.343Z,84.22
2018-01-11T03:05:07.342Z,83.74
2018-01-11T03:06:07.357Z,84.31
2018-01-11T03:07:07.356Z,84.31
2018-01-11T03:08:07.353Z,83.93
2018-01-11T03:09:07.357Z,84.69
2018-01-11T03:10:07.361Z,84.50
2018-01-11T03:11:07.366Z,84.50
2018-01-11T03:12:07.380Z,84.50
2018-01-11T03:13:07.380Z,84.69
2018-01-11T03:14:07.385Z,84.31
2018-01-11T03:15:07.388Z,84.59
2018-01-11T03:16:07.389Z,84.12
2018-01-11T03:17:07.393Z,84.12
2018-01-11T03:18:07.392Z,84.22
2018-01-11T03:19:07.401Z,83.74
2018-01-11T03:20:07.406Z,83.55
2018-01-11T03:21:07.405Z,83.65
2018-01-11T03:22:07.415Z,83.36
2018-01-11T03:23:07.416Z,83.46
2018-01-11T03:24:07.421Z,83.84
2018-01-11T03:25:07.419Z,83.46
2018-01-11T03:26:07.423Z,83.55
2018-01-11T03:27:07.433Z,83.27
2018-01-11T03:28:07.432Z,83.08
2018-01-11T03:29:07.436Z,83.17
2018-01-11T03:30:07.443Z,83.17
2018-01-11T03:31:07.446Z,83.17
2018-01-11T03:32:07.447Z,83.08
2018-01-11T03:33:07.458Z,82.99
2018-01-11T03:34:07.462Z,82.80
2018-01-11T03:35:07.459Z,82.80
2018-01-11T03:36:07.472Z,83.08
2018-01-11T03:37:07.467Z,83.17
2018-01-11T03:38:07.479Z,82.99
2018-01-11T03:39:07.480Z,83.36
2018-01-11T03:40:07.486Z,83.27
2018-01-11T03:41:07.484Z,82.42
2018-01-11T03:42:07.495Z,82.70
2018-01-11T03:43:07.496Z,82.61
2018-01-11T03:44:07.497Z,82.51
2018-01-11T03:45:07.499Z,82.42
2018-01-11T03:46:07.505Z,82.32
2018-01-11T03:47:07.516Z,82.61
2018-01-11T03:48:07.517Z,82.89
2018-01-11T03:49:07.521Z,82.70
2018-01-11T03:50:07.520Z,82.89
2018-01-11T03:51:07.530Z,83.08
2018-01-11T03:52:07.528Z,82.99
2018-01-11T03:53:07.534Z,82.89
2018-01-11T03:54:07.543Z,82.80
2018-01-11T03:55:07.548Z,82.99
2018-01-11T03:56:07.549Z,82.80
2018-01-11T03:57:07.554Z,82.23
2018-01-11T03:58:07.558Z,82.32
2018-01-11T03:59:07.562Z,82.70
2018-01-11T04:00:07.561Z,82.61
2018-01-11T04:01:07.572Z,82.51
2018-01-11T04:02:07.576Z,82.23
2018-01-11T04:03:07.574Z,81.76
2018-01-11T04:04:07.578Z,82.04
2018-01-11T04:05:07.589Z,81.67
2018-01-11T04:06:07.588Z,81.95
2018-01-11T04:07:07.597Z,81.85
2018-01-11T04:08:07.594Z,81.48
2018-01-11T04:09:07.600Z,81.29
2018-01-11T04:10:07.606Z,81.38
2018-01-11T04:11:07.614Z,81.10
2018-01-11T04:12:07.613Z,81.48
2018-01-11T04:13:07.619Z,81.20
2018-01-11T04:14:07.625Z,81.29
2018-01-11T04:15:07.626Z,81.48
2018-01-11T04:16:07.635Z,81.38
2018-01-11T04:17:07.636Z,81.57
2018-01-11T04:18:07.638Z,81.10
2018-01-11T04:19:07.642Z,81.48
2018-01-11T04:20:07.652Z,81.38
2018-01-11T04:21:07.651Z,81.95
2018-01-11T04:22:07.655Z,81.85
2018-01-11T04:23:07.660Z,81.76
2018-01-11T04:24:07.664Z,82.70
2018-01-11T04:25:07.667Z,82.42
2018-01-11T04:26:07.673Z,82.70
2018-01-11T04:27:07.682Z,82.70
2018-01-11T04:28:07.680Z,82.99
2018-01-11T04:29:07.686Z,83.08
2018-01-11T04:30:07.690Z,82.99
2018-01-11T04:31:07.696Z,83.27
2018-01-11T04:32:07.704Z,83.46
2018-01-11T04:33:07.707Z,82.99
2018-01-11T04:34:07.713Z,83.08
2018-01-11T04:35:07.716Z,82.32
2018-01-11T04:36:07.721Z,82.61
2018-01-11T04:37:07.719Z,82.04
2018-01-11T04:38:07.729Z,81.95
2018-01-11T04:39:07.728Z,82.51
2018-01-11T04:40:07.737Z,82.23
2018-01-11T04:41:07.735Z,82.42
2018-01-11T04:42:07.746Z,82.32
2018-01-11T04:43:07.745Z,81.95
2018-01-11T04:44:07.755Z,82.04
2018-01-11T04:45:07.757Z,81.85
2018-01-11T04:46:07.763Z,81.85
2018-01-11T04:47:07.761Z,81.67
2018-01-11T04:48:07.765Z,81.29
2018-01-11T04:49:07.775Z,81.76
2018-01-11T04:50:07.775Z,81.01
2018-01-11T04:51:07.784Z,81.10
2018-01-11T04:52:07.787Z,81.38
2018-01-11T04:53:07.786Z,81.76
2018-01-11T04:54:07.798Z,81.57
2018-01-11T04:55:07.797Z,81.29
2018-01-11T04:56:07.805Z,81.29
2018-01-11T04:57:07.810Z,81.57
2018-01-11T04:58:07.813Z,81.29
2018-01-11T04:59:07.818Z,81.38
2018-01-11T05:00:07.822Z,80.91
2018-01-11T05:01:07.827Z,81.10
2018-01-11T05:02:07.826Z,81.48
2018-01-11T05:03:07.830Z,81.38
2018-01-11T05:04:07.833Z,81.67
2018-01-11T05:05:07.845Z,81.38
2018-01-11T05:06:07.851Z,81.29
2018-01-11T05:07:07.854Z,81.48
2018-01-11T05:08:07.858Z,81.29
2018-01-11T05:09:07.862Z,81.01
2018-01-11T05:10:07.862Z,81.38
2018-01-11T05:11:07.873Z,80.72
2018-01-11T05:12:07.875Z,80.63
2018-01-11T05:13:07.877Z,80.63
2018-01-11T05:14:07.879Z,80.82
2018-01-11T05:15:07.889Z,80.82
2018-01-11T05:16:07.888Z,80.91
2018-01-11T05:17:07.893Z,81.57
2018-01-11T05:18:07.902Z,81.57
2018-01-11T05:19:07.908Z,81.76
2018-01-11T05:20:07.911Z,82.04
2018-01-11T05:21:07.915Z,81.85
2018-01-11T05:22:07.919Z,82.51
2018-01-11T05:23:07.923Z,82.51
2018-01-11T05:24:07.927Z,82.51
2018-01-11T05:25:07.932Z,82.89
2018-01-11T05:26:07.931Z,82.51
2018-01-11T05:27:07.941Z,82.61
2018-01-11T05:28:07.938Z,82.42
2018-01-11T05:29:07.949Z,82.42
2018-01-11T05:30:07.949Z,81.76
2018-01-11T05:31:07.953Z,81.29
2018-01-11T05:32:07.961Z,81.48
2018-01-11T05:33:07.966Z,80.44
2018-01-11T05:34:07.966Z,80.72
2018-01-11T05:35:07.976Z,80.82
2018-01-11T05:36:07.972Z,80.91
2018-01-11T05:37:07.983Z,80.44
2018-01-11T05:38:07.983Z,80.63
2018-01-11T05:39:07.986Z,80.72
2018-01-11T05:40:07.991Z,81.38
2018-01-11T05:41:07.995Z,81.57
2018-01-11T05:42:08.004Z,82.51
2018-01-11T05:43:08.004Z,82.32
2018-01-11T05:44:08.010Z,82.70
2018-01-11T05:45:08.011Z,82.80
2018-01-11T05:46:08.021Z,83.08
2018-01-11T05:47:08.024Z,83.55
2018-01-11T05:48:08.031Z,83.74
2018-01-11T05:49:08.028Z,84.03
2018-01-11T05:50:08.036Z,84.59
2018-01-11T05:51:08.037Z,84.78
2018-01-11T05:52:08.047Z,84.31
2018-01-11T05:53:08.044Z,84.31
2018-01-11T05:54:08.047Z,83.65
2018-01-11T05:55:08.051Z,83.55
2018-01-11T05:56:08.056Z,83.46
2018-01-11T05:57:08.067Z,82.61
2018-01-11T05:58:08.064Z,82.23
2018-01-11T05:59:08.070Z,82.80
2018-01-11T06:00:08.070Z,82.42
2018-01-11T06:01:08.075Z,82.32
2018-01-11T06:02:08.077Z,82.99
2018-01-11T06:03:08.082Z,82.51
2018-01-11T06:04:08.084Z,82.89
2018-01-11T06:05:08.094Z,82.70
2018-01-11T06:06:08.098Z,82.70
2018-01-11T06:07:08.102Z,82.61
2018-01-11T06:08:08.105Z,82.32
2018-01-11T06:09:08.108Z,82.61
2018-01-11T06:10:08.109Z,82.51
2018-01-11T06:11:08.119Z,81.95
2018-01-11T06:12:08.116Z,82.51
2018-01-11T06:13:08.124Z,82.32
2018-01-11T06:14:08.123Z,82.70
2018-01-11T06:15:08.127Z,82.47
2018-01-11T06:16:08.132Z,82.51
2018-01-11T06:17:08.138Z,82.51
2018-01-11T06:18:08.145Z,82.85
2018-01-11T06:19:08.142Z,82.47
2018-01-11T06:20:08.153Z,82.51
2018-01-11T06:21:08.148Z,83.33
2018-01-11T06:22:08.160Z,84.22
2018-01-11T06:23:08.164Z,84.55
2018-01-11T06:24:08.165Z,83.98
2018-01-11T06:25:08.164Z,84.36
2018-01-11T06:26:08.168Z,84.08
2018-01-11T06:27:08.174Z,83.70
2018-01-11T06:28:08.175Z,83.36
2018-01-11T06:29:08.184Z,83.98
2018-01-11T06:30:08.184Z,83.89
2018-01-11T06:31:08.193Z,83.51
2018-01-11T06:32:08.192Z,83.42
2018-01-11T06:33:08.192Z,83.74
2018-01-11T06:34:08.198Z,83.80
2018-01-11T06:35:08.203Z,84.69
2018-01-11T06:36:08.204Z,84.74
2018-01-11T06:37:08.209Z,84.22
2018-01-11T06:38:08.213Z,84.36
2018-01-11T06:39:08.221Z,84.64
2018-01-11T06:40:08.222Z,84.45
2018-01-11T06:41:08.228Z,84.45
2018-01-11T06:42:08.232Z,83.89
2018-01-11T06:43:08.228Z,83.89
2018-01-11T06:44:08.233Z,84.27
2018-01-11T06:45:08.241Z,84.64
2018-01-11T06:46:08.245Z,84.55
2018-01-11T06:47:08.246Z,84.55
2018-01-11T06:48:08.252Z,83.98
2018-01-11T06:49:08.255Z,84.36
2018-01-11T06:50:08.263Z,84.55
2018-01-11T06:51:08.262Z,84.78
2018-01-11T06:52:08.266Z,84.50
2018-01-11T06:53:08.268Z,84.59
2018-01-11T06:54:08.275Z,84.12
2018-01-11T06:55:08.274Z,83.84
2018-01-11T06:56:08.275Z,83.93
2018-01-11T06:57:08.281Z,83.65
2018-01-11T06:58:08.286Z,82.99
2018-01-11T06:59:08.292Z,83.46
2018-01-11T07:00:08.288Z,83.27
2018-01-11T07:01:08.297Z,83.27
2018-01-11T07:02:08.298Z,83.17
2018-01-11T07:03:08.300Z,82.89
2018-01-11T07:04:08.302Z,82.51
2018-01-11T07:05:08.309Z,82.70
2018-01-11T07:06:08.316Z,82.42
2018-01-11T07:07:08.318Z,81.95
2018-01-11T07:08:08.322Z,82.32
2018-01-11T07:09:08.322Z,81.85
2018-01-11T07:10:08.330Z,82.70
2018-01-11T07:11:08.329Z,82.51
2018-01-11T07:12:08.332Z,82.23
2018-01-11T07:13:08.340Z,82.32
2018-01-11T07:14:08.345Z,82.42
2018-01-11T07:15:08.346Z,82.70
2018-01-11T07:16:08.347Z,82.04
2018-01-11T07:17:08.359Z,82.04
2018-01-11T07:18:08.355Z,82.32
2018-01-11T07:19:08.364Z,82.42
2018-01-11T07:20:08.362Z,82.51
2018-01-11T07:21:08.373Z,82.61
2018-01-11T07:22:08.376Z,82.70
2018-01-11T07:23:08.377Z,82.32
2018-01-11T07:24:08.378Z,82.51
2018-01-11T07:25:08.386Z,82.80
2018-01-11T07:26:08.390Z,83.55
2018-01-11T07:27:08.392Z,83.65
2018-01-11T07:28:08.398Z,83.65
2018-01-11T07:29:08.403Z,84.31
2018-01-11T07:30:08.403Z,84.03
2018-01-11T07:31:08.405Z,84.22
2018-01-11T07:32:08.413Z,83.74
2018-01-11T07:33:08.412Z,83.55
2018-01-11T07:34:08.416Z,83.17
2018-01-11T07:35:08.426Z,83.27
2018-01-11T07:36:08.430Z,83.36
2018-01-11T07:37:08.432Z,83.17
2018-01-11T07:38:08.434Z,83.08
2018-01-11T07:39:08.437Z,83.08
2018-01-11T07:40:08.440Z,82.99
2018-01-11T07:41:08.445Z,83.17
2018-01-11T07:42:08.454Z,82.80
2018-01-11T07:43:08.452Z,83.27
2018-01-11T07:44:08.456Z,83.27
2018-01-11T07:45:08.464Z,83.46
2018-01-11T07:46:08.464Z,83.46
2018-01-11T07:47:08.474Z,83.36
2018-01-11T07:48:08.478Z,83.74
2018-01-11T07:49:08.480Z,83.17
2018-01-11T07:50:08.486Z,83.08
2018-01-11T07:51:08.489Z,83.17
2018-01-11T07:52:08.487Z,82.99
2018-01-11T07:53:08.500Z,82.51
2018-01-11T07:54:08.500Z,82.61
2018-01-11T07:55:08.507Z,82.32
2018-01-11T07:56:08.508Z,82.80
2018-01-11T07:57:08.523Z,82.80
2018-01-11T07:58:08.516Z,82.89
2018-01-11T07:59:08.522Z,82.61
2018-01-11T08:00:08.526Z,83.17
2018-01-11T08:01:08.524Z,83.55
2018-01-11T08:02:08.533Z,83.74
2018-01-11T08:03:08.542Z,83.17
2018-01-11T08:04:08.544Z,83.08
2018-01-11T08:05:08.539Z,83.08
2018-01-11T08:06:08.553Z,83.36
2018-01-11T08:07:08.555Z,83.08
2018-01-11T08:08:08.558Z,83.17
2018-01-11T08:09:08.565Z,83.17
2018-01-11T08:10:08.568Z,82.70
2018-01-11T08:11:08.571Z,82.32
2018-01-11T08:12:08.573Z,81.95
2018-01-11T08:13:08.573Z,82.04
2018-01-11T08:14:08.577Z,82.04
2018-01-11T08:15:08.581Z,82.51
2018-01-11T08:16:08.586Z,82.23
2018-01-11T08:17:08.597Z,82.70
2018-01-11T08:18:08.600Z,82.51
2018-01-11T08:19:08.605Z,82.51
2018-01-11T08:20:08.611Z,82.80
2018-01-11T08:21:08.615Z,83.08
2018-01-11T08:22:08.617Z,83.08
2018-01-11T08:23:08.622Z,82.80
2018-01-11T08:24:08.622Z,83.46
2018-01-11T08:25:08.624Z,83.17
2018-01-11T08:26:08.627Z,82.23
2018-01-11T08:27:08.634Z,81.95
2018-01-11T08:28:08.637Z,82.23
2018-01-11T08:29:08.650Z,81.38
2018-01-11T08:30:08.651Z,81.10
2018-01-11T08:31:08.651Z,81.29
2018-01-11T08:32:08.656Z,81.10
2018-01-11T08:33:08.662Z,81.67
2018-01-11T08:34:08.668Z,81.38
2018-01-11T08:35:08.669Z,81.57
2018-01-11T08:36:08.674Z,81.67
2018-01-11T08:37:08.682Z,81.67
2018-01-11T08:38:08.686Z,81.61
2018-01-11T08:39:08.687Z,81.80
2018-01-11T08:40:08.688Z,81.04
2018-01-11T08:41:08.699Z,81.04
2018-01-11T08:42:08.706Z,80.66
2018-01-11T08:43:08.717Z,80.10
2018-01-11T08:44:08.707Z,80.10
2018-01-11T08:45:08.719Z,80.00
2018-01-11T08:46:08.718Z,79.91
2018-01-11T08:47:08.727Z,80.00
2018-01-11T08:48:08.726Z,79.44
2018-01-11T08:49:08.736Z,79.53
2018-01-11T08:50:08.739Z,79.91
2018-01-11T08:51:08.741Z,79.63
2018-01-11T08:52:08.743Z,80.00
2018-01-11T08:53:08.748Z,79.91
2018-01-11T08:54:08.760Z,79.44
2018-01-11T08:55:08.765Z,79.63
2018-01-11T08:56:08.769Z,79.35
2018-01-11T08:57:08.771Z,79.25
2018-01-11T08:58:08.777Z,79.16
2018-01-11T08:59:08.777Z,78.50
2018-01-11T09:00:08.787Z,78.97
2018-01-11T09:01:08.796Z,78.02
2018-01-11T09:02:08.796Z,78.06
2018-01-11T09:03:08.824Z,78.59
2018-01-11T09:04:08.806Z,78.68
2018-01-11T09:05:08.811Z,79.16
2018-01-11T09:06:08.819Z,78.97
2018-01-11T09:07:08.821Z,79.82
2018-01-11T09:08:08.825Z,80.57
2018-01-11T09:09:08.830Z,81.04
2018-01-11T09:10:08.831Z,81.42
2018-01-11T09:11:08.843Z,80.85
2018-01-11T09:12:08.840Z,80.85
2018-01-11T09:13:08.850Z,81.42
2018-01-11T09:14:08.859Z,80.95
2018-01-11T09:15:08.864Z,80.66
2018-01-11T09:16:08.863Z,80.48
2018-01-11T09:17:08.865Z,80.38
2018-01-11T09:18:08.869Z,80.10
2018-01-11T09:19:08.884Z,79.86
2018-01-11T09:20:08.885Z,79.29
2018-01-11T09:21:08.886Z,79.19
2018-01-11T09:22:08.890Z,78.72
2018-01-11T09:23:08.896Z,77.87
2018-01-11T09:24:08.899Z,77.87
2018-01-11T09:25:08.905Z,77.59
2018-01-11T09:26:08.909Z,78.16
2018-01-11T09:27:08.915Z,78.81
2018-01-11T09:28:08.921Z,78.16
2018-01-11T09:29:08.936Z,78.34
2018-01-11T09:30:08.937Z,77.87
2018-01-11T09:31:08.939Z,77.31
2018-01-11T09:32:08.942Z,76.36
2018-01-11T09:33:08.949Z,75.98
2018-01-11T09:34:08.952Z,75.89
2018-01-11T09:35:08.963Z,74.85
2018-01-11T09:36:08.969Z,74.47
2018-01-11T09:37:08.976Z,74.57
2018-01-11T09:38:08.974Z,74.95
2018-01-11T09:39:08.984Z,77.12
2018-01-11T09:40:08.985Z,78.06
2018-01-11T09:41:08.997Z,78.53
2018-01-11T09:42:08.997Z,77.87
2018-01-11T09:43:09.007Z,78.63
2018-01-11T09:44:09.006Z,78.06
2018-01-11T09:45:09.058Z,78.44
2018-01-11T09:46:09.020Z,78.44
2018-01-11T09:47:09.028Z,78.53
2018-01-11T09:48:09.028Z,77.87
2018-01-11T09:49:09.042Z,77.31
2018-01-11T09:50:09.048Z,76.68
2018-01-11T09:51:09.054Z,76.68
2018-01-11T09:52:09.059Z,76.50
2018-01-11T09:53:09.062Z,76.02
2018-01-11T09:54:09.069Z,76.12
2018-01-11T09:55:09.075Z,75.83
2018-01-11T09:56:09.075Z,76.31
2018-01-11T09:57:09.092Z,76.21
2018-01-11T09:58:09.087Z,75.93
2018-01-11T09:59:09.091Z,75.26
2018-01-11T10:00:09.104Z,75.83
2018-01-11T10:01:09.111Z,75.17
2018-01-11T10:02:09.112Z,75.07
2018-01-11T10:03:09.117Z,74.69
2018-01-11T10:04:09.130Z,74.74
2018-01-11T10:05:09.130Z,74.45
2018-01-11T10:06:09.144Z,73.98
2018-01-11T10:07:09.143Z,73.69
2018-01-11T10:08:09.149Z,73.88
2018-01-11T10:09:09.154Z,73.69
2018-01-11T10:10:09.163Z,73.03
2018-01-11T10:11:09.169Z,71.90
2018-01-11T10:12:09.173Z,72.80
2018-01-11T10:13:09.181Z,73.18
2018-01-11T10:14:09.189Z,74.60
2018-01-11T10:15:09.200Z,75.70
2018-01-11T10:16:09.206Z,77.02
2018-01-11T10:17:09.211Z,78.16
2018-01-11T10:18:09.213Z,77.91
2018-01-11T10:19:09.227Z,77.53
2018-01-11T10:20:09.226Z,76.68
2018-01-11T10:21:09.232Z,76.50
2018-01-11T10:22:09.247Z,75.26
2018-01-11T10:23:09.252Z,75.21
2018-01-11T10:24:09.257Z,75.02
2018-01-11T10:25:09.266Z,74.98
2018-01-11T10:26:09.271Z,75.17
2018-01-11T10:27:09.278Z,74.79
2018-01-11T10:28:09.285Z,75.74
2018-01-11T10:29:09.292Z,76.97
2018-01-11T10:30:09.298Z,77.87
2018-01-11T10:31:09.300Z,78.63
2018-01-11T10:32:09.306Z,78.72
2018-01-11T10:33:09.319Z,78.76
2018-01-11T10:34:09.322Z,79.14
2018-01-11T10:35:09.326Z,78.76
2018-01-11T10:36:09.334Z,77.91
2018-01-11T10:37:09.346Z,78.10
2018-01-11T10:38:09.352Z,77.44
2018-01-11T10:39:09.354Z,76.50
2018-01-11T10:40:09.366Z,75.93
2018-01-11T10:41:09.374Z,75.12
2018-01-11T10:42:09.375Z,75.21
2018-01-11T10:43:09.381Z,75.17
2018-01-11T10:44:09.398Z,75.07
2018-01-11T10:45:09.401Z,75.40
2018-01-11T10:46:09.406Z,75.17
2018-01-11T10:47:09.412Z,74.79
2018-01-11T10:48:09.413Z,74.79
2018-01-11T10:49:09.427Z,75.83
2018-01-11T10:50:09.434Z,75.74
2018-01-11T10:51:09.440Z,76.59
2018-01-11T10:52:09.442Z,76.97
2018-01-11T10:53:09.446Z,76.31
2018-01-11T10:54:09.459Z,76.50
2018-01-11T10:55:09.467Z,76.87
2018-01-11T10:56:09.473Z,77.91
2018-01-11T10:57:09.482Z,77.15
2018-01-11T10:58:09.489Z,76.06
2018-01-11T10:59:09.495Z,75.78
2018-01-11T11:00:09.497Z,75.31
2018-01-11T11:01:09.514Z,73.98
2018-01-11T11:02:09.510Z,73.69
2018-01-11T11:03:09.522Z,73.98
2018-01-11T11:04:09.531Z,74.64
2018-01-11T11:05:09.535Z,74.74
2018-01-11T11:06:09.550Z,75.21
2018-01-11T11:07:09.552Z,76.02
2018-01-11T11:08:09.553Z,76.31
2018-01-11T11:09:09.560Z,77.91
2018-01-11T11:10:09.574Z,78.76
2018-01-11T11:11:09.575Z,78.67
2018-01-11T11:12:09.589Z,79.05
2018-01-11T11:13:09.596Z,79.43
2018-01-11T11:14:09.604Z,78.58
2018-01-11T11:15:09.616Z,77.39
2018-01-11T11:16:09.618Z,76.72
2018-01-11T11:17:09.618Z,76.57
2018-01-11T11:18:09.626Z,74.93
2018-01-11T11:19:09.639Z,74.55
2018-01-11T11:20:09.644Z,75.12
2018-01-11T11:21:09.645Z,75.02
2018-01-11T11:22:09.654Z,74.55
2018-01-11T11:23:09.662Z,75.02
2018-01-11T11:24:09.667Z,74.83
2018-01-11T11:25:09.676Z,75.05
2018-01-11T11:26:09.690Z,74.02
2018-01-11T11:27:09.697Z,74.36
2018-01-11T11:28:09.703Z,75.12
2018-01-11T11:29:09.714Z,74.83
2018-01-11T11:30:09.715Z,74.93
2018-01-11T11:31:09.723Z,75.21
2018-01-11T11:32:09.734Z,75.87
2018-01-11T11:33:09.743Z,76.06
2018-01-11T11:34:09.746Z,76.82
2018-01-11T11:35:09.759Z,76.44
2018-01-11T11:36:09.769Z,75.59
2018-01-11T11:37:09.767Z,75.40
2018-01-11T11:38:09.780Z,75.02
2018-01-11T11:39:09.786Z,74.11
2018-01-11T11:40:09.795Z,73.35
2018-01-11T11:41:09.798Z,73.26
2018-01-11T11:42:09.817Z,72.88
2018-01-11T11:43:09.818Z,72.69
2018-01-11T11:44:09.829Z,70.23
2018-01-11T11:45:09.835Z,70.42
2018-01-11T11:46:09.845Z,69.95
2018-01-11T11:47:09.853Z,70.93
2018-01-11T11:48:09.854Z,67.52
2018-01-11T11:49:09.867Z,66.38
2018-01-11T11:50:09.869Z,65.47
2018-01-11T11:51:09.886Z,66.51
2018-01-11T11:52:09.894Z,67.18
2018-01-11T11:53:09.897Z,67.08
2018-01-11T11:54:09.906Z,66.83
2018-01-11T11:55:09.921Z,66.20
2018-01-11T11:56:09.929Z,64.68
2018-01-11T11:57:09.933Z,62.34
2018-01-11T11:58:09.944Z,61.80
2018-01-11T11:59:09.951Z,59.05
2018-01-11T12:00:09.961Z,57.28
2018-01-11T12:01:09.978Z,55.59
2018-01-11T12:02:09.986Z,54.07
2018-01-11T12:03:09.995Z,53.41
2018-01-11T12:04:10.000Z,52.86
2018-01-11T12:05:10.014Z,51.98
2018-01-11T12:06:10.023Z,53.03
2018-01-11T12:07:10.031Z,52.33
2018-01-11T12:08:10.042Z,54.94
2018-01-11T12:09:10.057Z,57.91
2018-01-11T12:10:10.065Z,57.62
2018-01-11T12:11:10.078Z,56.74
2018-01-11T12:12:10.095Z,60.80
2018-01-11T12:13:10.100Z,67.14
2018-01-11T12:14:10.112Z,70.23
2018-01-11T12:15:10.118Z,70.98
2018-01-11T12:16:10.136Z,71.78
2018-01-11T12:17:10.139Z,70.97
2018-01-11T12:18:10.150Z,68.63
2018-01-11T12:19:10.167Z,65.69
2018-01-11T12:20:10.178Z,64.93
2018-01-11T12:21:10.191Z,64.90
2018-01-11T12:22:10.204Z,65.31
2018-01-11T12:23:10.210Z,64.55
2018-01-11T12:24:10.222Z,64.46
2018-01-11T12:25:10.230Z,63.76
2018-01-11T12:26:10.243Z,64.27
2018-01-11T12:27:10.248Z,63.82
2018-01-11T12:28:10.257Z,62.15
2018-01-11T12:29:10.276Z,60.44
2018-01-11T12:30:10.281Z,60.63
2018-01-11T12:31:10.298Z,59.14
2018-01-11T12:32:10.301Z,56.80
2018-01-11T12:33:10.313Z,54.83
2018-01-11T12:34:10.327Z,53.97
2018-01-11T12:35:10.338Z,52.76
2018-01-11T12:36:10.351Z,51.91
2018-01-11T12:37:10.364Z,51.95
2018-01-11T12:38:10.372Z,52.53
2018-01-11T12:39:10.384Z,54.58
2018-01-11T12:40:10.395Z,55.04
2018-01-11T12:41:10.407Z,56.52
2018-01-11T12:42:10.424Z,59.81
2018-01-11T12:43:10.435Z,63.51
2018-01-11T12:44:10.442Z,62.78
2018-01-11T12:45:10.456Z,60.92
2018-01-11T12:46:10.471Z,57.81
2018-01-11T12:47:10.484Z,55.69
2018-01-11T12:48:10.493Z,53.15
2018-01-11T12:49:10.503Z,50.96
2018-01-11T12:50:10.515Z,48.51
2018-01-11T12:51:10.533Z,48.44
2018-01-11T12:52:10.541Z,45.87